createdAt,value
2022-08-17T00:05:57.273Z,99.90
2022-08-17T00:08:25.664Z,99.90
2022-08-17T00:10:53.076Z,99.90
2022-08-17T00:13:29.503Z,99.90
2022-08-17T00:15:59.381Z,99.90
2022-08-17T00:19:06.171Z,99.90
2022-08-17T00:21:16.142Z,99.90
2022-08-17T00:23:50.722Z,99.90
2022-08-17T00:26:43.477Z,99.90
2022-08-17T00:31:31.940Z,99.90
2022-08-17T00:33:59.382Z,99.90
2022-08-17T00:36:26.091Z,99.90
2022-08-17T00:38:52.727Z,99.90
2022-08-17T00:41:21.376Z,99.90
2022-08-17T00:43:49.703Z,99.90
2022-08-17T00:46:18.016Z,99.90
2022-08-17T00:48:45.126Z,99.90
2022-08-17T00:53:41.961Z,99.90
2022-08-17T00:56:10.642Z,99.90
2022-08-17T00:58:38.227Z,99.90
2022-08-17T01:01:06.709Z,99.90
2022-08-17T01:03:34.973Z,99.90
2022-08-17T01:06:02.715Z,99.90
2022-08-17T01:08:31.094Z,99.90
2022-08-17T01:11:02.018Z,99.90
2022-08-17T01:13:34.453Z,99.90
2022-08-17T01:16:05.945Z,99.90
2022-08-17T01:18:33.070Z,99.90
2022-08-17T01:21:04.907Z,99.90
2022-08-17T01:23:31.741Z,99.90
2022-08-17T01:25:59.615Z,99.90
2022-08-17T01:28:52.404Z,99.90
2022-08-17T01:31:14.864Z,99.90
2022-08-17T01:33:41.545Z,99.90
2022-08-17T01:36:08.338Z,99.90
2022-08-17T01:38:35.925Z,99.90
2022-08-17T01:41:07.525Z,99.90
2022-08-17T01:43:52.015Z,99.90
2022-08-17T01:46:21.857Z,99.90
2022-08-17T01:48:48.601Z,99.90
2022-08-17T01:51:15.998Z,99.90
2022-08-17T01:53:44.263Z,99.90
2022-08-17T01:56:13.744Z,99.90
2022-08-17T01:58:41.289Z,99.90
2022-08-17T02:01:08.567Z,99.90
2022-08-17T02:03:36.135Z,99.90
2022-08-17T02:06:03.060Z,99.90
2022-08-17T02:08:37.287Z,99.90
2022-08-17T02:11:11.649Z,99.90
2022-08-17T02:13:38.996Z,99.90
2022-08-17T02:16:05.857Z,99.90
2022-08-17T02:18:32.592Z,99.90
2022-08-17T02:43:27.194Z,99.90
2022-08-17T02:45:54.205Z,99.90
2022-08-17T02:48:30.710Z,99.90
2022-08-17T02:50:58.795Z,99.90
2022-08-17T02:53:25.652Z,99.90
2022-08-17T02:55:52.493Z,99.90
2022-08-17T03:01:03.368Z,99.90
2022-08-17T03:03:30.083Z,99.90
2022-08-17T03:05:56.783Z,99.90
2022-08-17T03:08:23.561Z,99.90
2022-08-17T03:10:50.597Z,99.90
2022-08-17T03:13:17.444Z,99.90
2022-08-17T03:15:45.277Z,99.90
2022-08-17T03:18:19.266Z,99.90
2022-08-17T03:20:52.593Z,99.90
2022-08-17T03:23:24.299Z,99.90
2022-08-17T03:25:53.075Z,99.90
2022-08-17T03:28:20.155Z,99.90
2022-08-17T03:30:46.838Z,99.90
2022-08-17T03:33:14.705Z,99.90
2022-08-17T03:35:41.816Z,99.90
2022-08-17T03:38:12.472Z,99.90
2022-08-17T03:40:56.361Z,99.90
2022-08-17T03:43:24.943Z,99.90
2022-08-17T03:46:24.950Z,99.90
2022-08-17T03:49:14.399Z,99.90
2022-08-17T03:51:59.594Z,99.90
2022-08-17T03:54:44.807Z,99.90
2022-08-17T03:57:11.946Z,99.90
2022-08-17T03:59:40.863Z,99.90
2022-08-17T04:02:13.015Z,99.90
2022-08-17T04:04:39.622Z,99.90
2022-08-17T04:07:06.831Z,99.90
2022-08-17T04:09:34.020Z,99.90
2022-08-17T04:12:01.197Z,99.90
2022-08-17T04:14:36.311Z,99.90
2022-08-17T04:17:19.965Z,99.90
2022-08-17T04:19:46.773Z,99.90
2022-08-17T04:22:32.597Z,99.90
2022-08-17T04:25:01.299Z,99.90
2022-08-17T04:27:27.980Z,99.90
2022-08-17T04:29:55.951Z,99.90
2022-08-17T04:33:03.393Z,99.90
2022-08-17T04:35:10.099Z,99.90
2022-08-17T04:37:37.742Z,99.90
2022-08-17T04:40:23.213Z,99.90
2022-08-17T04:45:27.442Z,99.90
2022-08-17T04:47:59.519Z,99.90
2022-08-17T04:50:26.259Z,99.90
2022-08-17T04:52:52.945Z,99.90
2022-08-17T04:55:19.667Z,99.90
2022-08-17T04:57:46.357Z,99.90
2022-08-17T05:00:13.192Z,99.90
2022-08-17T05:02:50.671Z,99.90
2022-08-17T05:05:18.746Z,99.90
2022-08-17T05:07:45.379Z,99.90
2022-08-17T05:10:12.004Z,99.90
2022-08-17T05:12:38.794Z,99.90
2022-08-17T05:15:05.669Z,99.90
2022-08-17T05:17:32.342Z,99.90
2022-08-17T05:19:59.028Z,99.90
2022-08-17T05:22:25.690Z,99.90
2022-08-17T05:24:53.940Z,99.90
2022-08-17T05:27:22.804Z,99.90
2022-08-17T05:29:50.184Z,99.90
2022-08-17T05:32:38.146Z,99.90
2022-08-17T05:35:03.931Z,99.90
2022-08-17T05:37:30.615Z,99.90
2022-08-17T05:39:57.342Z,99.90
2022-08-17T05:49:45.265Z,99.90
2022-08-17T05:54:49.570Z,99.90
2022-08-17T05:57:32.930Z,99.90
2022-08-17T06:00:20.327Z,99.90
2022-08-17T06:02:48.025Z,99.90
2022-08-17T06:05:20.952Z,99.90
2022-08-17T06:07:47.623Z,99.90
2022-08-17T06:10:18.454Z,99.90
2022-08-17T06:13:00.492Z,99.90
2022-08-17T06:15:33.301Z,99.90
2022-08-17T06:18:03.889Z,99.90
2022-08-17T06:20:35.653Z,99.90
2022-08-17T06:23:04.122Z,99.90
2022-08-17T06:25:36.695Z,99.90
2022-08-17T06:35:50.689Z,99.90
2022-08-17T06:38:37.662Z,99.90
2022-08-17T06:41:12.352Z,99.90
2022-08-17T06:43:47.905Z,99.90
2022-08-17T06:46:24.091Z,99.90
2022-08-17T06:48:56.736Z,99.90
2022-08-17T06:53:53.421Z,99.90
2022-08-17T07:06:13.660Z,99.90
2022-08-17T07:08:53.659Z,99.90
2022-08-17T07:16:28.050Z,99.90
2022-08-17T07:21:40.807Z,99.90
2022-08-17T07:26:34.772Z,99.90
2022-08-17T07:29:02.339Z,99.90
2022-08-17T07:31:30.571Z,99.90
2022-08-17T07:34:02.923Z,99.90
2022-08-17T07:36:33.813Z,99.90
2022-08-17T07:39:02.058Z,99.90
2022-08-17T07:41:57.199Z,99.90
2022-08-17T07:44:18.186Z,99.90
2022-08-17T07:47:08.393Z,99.90
2022-08-17T07:57:19.428Z,99.90
2022-08-17T08:00:01.642Z,99.90
2022-08-17T08:02:33.842Z,99.90
2022-08-17T08:05:09.993Z,99.90
2022-08-17T08:07:50.427Z,99.90
2022-08-17T08:10:32.747Z,99.90
2022-08-17T08:15:33.666Z,99.90
2022-08-17T08:23:25.462Z,99.90
2022-08-17T08:25:56.585Z,99.90
2022-08-17T08:29:01.416Z,99.90
2022-08-17T08:31:45.902Z,99.90
2022-08-17T08:35:00.751Z,99.90
2022-08-17T08:39:57.827Z,99.90
2022-08-17T08:45:04.991Z,99.90
2022-08-17T08:50:37.567Z,99.90
2022-08-17T08:53:09.628Z,99.90
2022-08-17T08:55:36.810Z,99.90
2022-08-17T09:00:35.779Z,99.90
2022-08-17T09:03:06.203Z,99.90
2022-08-17T09:05:45.076Z,99.90
2022-08-17T09:11:00.030Z,99.90
2022-08-17T09:13:38.930Z,99.90
2022-08-17T09:16:05.616Z,99.90
2022-08-17T09:19:00.093Z,99.90
2022-08-17T09:21:23.289Z,99.90
2022-08-17T09:23:59.861Z,99.90
2022-08-17T09:29:01.419Z,99.90
2022-08-17T09:31:41.841Z,99.90
2022-08-17T09:34:18.291Z,99.90
2022-08-17T09:39:15.097Z,99.90
2022-08-17T09:41:51.898Z,98.90
2022-08-17T09:44:28.479Z,99.10
2022-08-17T09:47:15.161Z,96.30
2022-08-17T09:49:45.427Z,95.50
2022-08-17T09:52:26.039Z,94.60
2022-08-17T09:54:54.347Z,94.40
2022-08-17T10:16:14.191Z,92.20
2022-08-17T10:18:59.470Z,96.50
2022-08-17T10:21:44.956Z,91.50
2022-08-17T10:46:55.431Z,99.90
2022-08-17T10:49:22.042Z,99.90
2022-08-17T10:56:47.525Z,99.90
2022-08-17T11:01:44.179Z,91.30
2022-08-17T11:04:11.188Z,93.60
2022-08-17T11:06:37.818Z,87.20
2022-08-17T11:09:15.382Z,98.10
2022-08-17T11:11:47.468Z,95.90
2022-08-17T11:16:47.903Z,78.90
2022-08-17T11:19:17.548Z,81.10
2022-08-17T11:22:06.492Z,75.70
2022-08-17T11:24:40.622Z,76.50
2022-08-17T11:27:41.548Z,77.00
2022-08-17T11:30:11.336Z,80.40
2022-08-17T11:32:47.977Z,76.70
2022-08-17T11:35:15.442Z,76.40
2022-08-17T11:38:01.832Z,76.70
2022-08-17T11:40:31.553Z,89.40
2022-08-17T11:45:40.439Z,73.80
2022-08-17T11:48:33.271Z,74.20
2022-08-17T11:51:47.767Z,87.60
2022-08-17T11:54:34.369Z,87.80
2022-08-17T11:57:21.532Z,95.40
2022-08-17T11:59:48.190Z,99.90
2022-08-17T12:02:31.384Z,99.90
2022-08-17T12:05:02.595Z,99.90
2022-08-17T12:12:33.261Z,93.00
2022-08-17T12:20:15.558Z,78.30
2022-08-17T12:22:53.366Z,75.60
2022-08-17T12:25:24.074Z,74.90
2022-08-17T12:28:05.245Z,83.30
2022-08-17T12:30:32.630Z,85.10
2022-08-17T12:32:59.735Z,86.00
2022-08-17T12:35:29.731Z,82.30
2022-08-17T12:38:00.428Z,73.10
2022-08-17T12:40:31.614Z,66.10
2022-08-17T12:43:00.766Z,66.40
2022-08-17T12:45:30.724Z,68.80
2022-08-17T12:48:20.391Z,87.40
2022-08-17T12:50:47.254Z,90.60
2022-08-17T13:03:21.649Z,77.90
2022-08-17T13:05:56.381Z,92.70
2022-08-17T13:08:25.460Z,80.20
2022-08-17T13:10:57.140Z,73.60
2022-08-17T13:20:54.299Z,99.90
2022-08-17T13:28:18.985Z,92.10
2022-08-17T13:31:27.826Z,79.40
2022-08-17T13:36:30.304Z,82.00
2022-08-17T13:41:33.613Z,76.10
2022-08-17T13:44:00.506Z,76.90
2022-08-17T13:46:31.445Z,77.90
2022-08-17T13:49:03.175Z,76.60
2022-08-17T13:51:31.404Z,76.30
2022-08-17T13:53:59.402Z,76.10
2022-08-17T13:56:38.571Z,76.40
2022-08-17T13:59:08.561Z,74.10
2022-08-17T14:04:04.692Z,73.40
2022-08-17T14:06:53.835Z,76.00
2022-08-17T14:09:22.732Z,74.20
2022-08-17T14:11:49.912Z,77.10
2022-08-17T14:16:43.889Z,80.30
2022-08-17T14:19:12.654Z,80.50
2022-08-17T14:21:40.427Z,81.30
2022-08-17T14:24:08.898Z,81.00
2022-08-17T14:26:36.069Z,86.90
2022-08-17T14:31:34.068Z,94.60
2022-08-17T14:34:03.557Z,99.10
2022-08-17T14:38:57.959Z,99.90
2022-08-17T14:41:24.836Z,87.60
2022-08-17T14:43:53.412Z,82.50
2022-08-17T14:46:20.296Z,82.20
2022-08-17T14:48:47.167Z,81.50
2022-08-17T14:51:14.547Z,82.30
2022-08-17T14:53:41.508Z,85.40
2022-08-17T14:56:08.955Z,87.60
2022-08-17T14:58:35.639Z,85.60
2022-08-17T15:01:07.818Z,93.40
2022-08-17T15:03:39.262Z,91.00
2022-08-17T15:06:06.002Z,90.10
2022-08-17T15:08:32.804Z,99.90
2022-08-17T15:11:01.229Z,99.90
2022-08-17T15:13:27.933Z,96.40
2022-08-17T15:15:54.945Z,91.30
2022-08-17T15:18:21.779Z,95.20
2022-08-17T15:20:50.127Z,93.20
2022-08-17T15:23:18.858Z,98.80
2022-08-17T15:25:47.090Z,95.20
2022-08-17T15:28:13.883Z,97.30
2022-08-17T15:30:44.953Z,98.80
2022-08-17T15:35:39.005Z,99.70
2022-08-17T15:38:11.795Z,97.10
2022-08-17T15:40:42.956Z,94.10
2022-08-17T15:43:11.666Z,92.80
2022-08-17T15:45:38.976Z,99.90
2022-08-17T15:48:05.675Z,91.10
2022-08-17T15:50:32.407Z,91.60
2022-08-17T15:52:59.948Z,96.00
2022-08-17T15:55:27.995Z,87.70
2022-08-17T15:57:54.942Z,95.30
2022-08-17T16:00:23.972Z,95.70
2022-08-17T16:03:45.010Z,97.20
2022-08-17T16:05:37.703Z,98.50
2022-08-17T16:08:07.357Z,99.90
2022-08-17T16:17:58.333Z,82.20
2022-08-17T16:20:25.038Z,84.20
2022-08-17T16:22:51.929Z,84.90
2022-08-17T16:25:20.587Z,83.00
2022-08-17T16:30:17.604Z,99.90
2022-08-17T16:32:45.893Z,96.80
2022-08-17T16:35:16.956Z,96.20
2022-08-17T16:37:45.454Z,96.20
2022-08-17T16:40:13.685Z,96.30
2022-08-17T16:42:40.798Z,96.80
2022-08-17T16:45:09.842Z,95.10
2022-08-17T16:47:36.842Z,94.60
2022-08-17T16:50:05.070Z,98.50
2022-08-17T16:52:33.490Z,97.90
2022-08-17T16:55:01.570Z,97.10
2022-08-17T16:57:29.098Z,94.40
2022-08-17T16:59:56.499Z,92.60
2022-08-17T17:02:26.115Z,94.40
2022-08-17T17:05:22.760Z,98.10
2022-08-17T17:07:52.463Z,97.60
2022-08-17T17:10:21.984Z,93.10
2022-08-17T17:13:01.429Z,98.70
2022-08-17T17:15:37.297Z,94.00
2022-08-17T17:18:06.930Z,92.00
2022-08-17T17:20:38.874Z,92.60
2022-08-17T17:23:18.204Z,94.00
2022-08-17T17:25:51.008Z,90.50
2022-08-17T17:28:25.328Z,90.40
2022-08-17T17:31:04.375Z,92.80
2022-08-17T17:36:01.982Z,94.60
2022-08-17T17:38:34.238Z,96.40
2022-08-17T17:41:07.389Z,99.10
2022-08-17T17:43:41.377Z,96.50
2022-08-17T17:46:26.746Z,95.60
2022-08-17T17:48:55.148Z,93.60
2022-08-17T17:52:09.605Z,98.90
2022-08-17T17:54:33.945Z,99.90
2022-08-17T17:57:03.684Z,99.50
2022-08-17T18:02:36.844Z,99.00
2022-08-17T18:05:08.668Z,98.70
2022-08-17T18:07:42.137Z,99.90
2022-08-17T18:10:29.896Z,99.20
2022-08-17T18:12:57.382Z,99.90
2022-08-17T18:15:24.038Z,99.90
2022-08-17T18:18:23.204Z,99.90
2022-08-17T18:20:55.802Z,99.90
2022-08-17T18:23:28.194Z,99.90
2022-08-17T18:25:56.177Z,99.90
2022-08-17T18:28:36.789Z,99.90
2022-08-17T18:33:30.615Z,99.90
2022-08-17T18:53:30.250Z,99.90
2022-08-17T18:58:27.438Z,99.10
2022-08-17T19:00:54.196Z,99.50
2022-08-17T19:03:25.489Z,99.20
2022-08-17T19:06:10.822Z,99.70
2022-08-17T19:08:37.797Z,99.70
2022-08-17T19:13:35.496Z,99.90
2022-08-17T19:16:17.620Z,99.90
2022-08-17T19:18:58.665Z,99.90
2022-08-17T19:21:27.052Z,99.90
2022-08-17T19:23:58.656Z,99.90
2022-08-17T19:26:54.075Z,99.90
2022-08-17T19:29:19.411Z,99.90
2022-08-17T19:31:46.706Z,99.90
2022-08-17T19:34:14.947Z,99.90
2022-08-17T19:36:47.324Z,99.90
2022-08-17T19:39:37.729Z,99.90
2022-08-17T19:42:10.721Z,99.90
2022-08-17T19:44:49.563Z,99.90
2022-08-17T19:47:53.249Z,99.90
2022-08-17T19:50:39.055Z,99.90
2022-08-17T19:53:11.880Z,99.90
2022-08-17T19:55:59.362Z,99.90
2022-08-17T19:58:39.954Z,99.90
2022-08-17T20:01:10.103Z,99.90
2022-08-17T20:03:51.030Z,99.90
2022-08-17T20:06:18.768Z,99.90
2022-08-17T20:08:53.805Z,99.90
2022-08-17T20:11:24.741Z,99.90
2022-08-17T20:13:54.463Z,99.90
2022-08-17T20:16:21.257Z,99.90
2022-08-17T20:18:54.042Z,99.90
2022-08-17T20:21:20.858Z,99.90
2022-08-17T20:24:04.415Z,99.90
2022-08-17T20:26:57.887Z,99.90
2022-08-17T20:29:40.247Z,99.90
2022-08-17T20:32:13.616Z,99.90
2022-08-17T20:44:33.870Z,99.90
2022-08-17T20:49:48.263Z,99.90
2022-08-17T20:52:34.827Z,99.90
2022-08-17T23:16:42.604Z,99.90
2022-08-17T23:19:13.471Z,99.90
2022-08-17T23:21:40.284Z,99.90
2022-08-17T23:24:08.876Z,99.90
2022-08-17T23:26:38.016Z,99.90
2022-08-17T23:29:05.189Z,99.90
2022-08-17T23:31:34.812Z,99.90
2022-08-17T23:34:03.463Z,99.90
2022-08-17T23:36:31.579Z,99.90
2022-08-17T23:38:58.435Z,99.90
2022-08-17T23:41:27.455Z,99.90
2022-08-17T23:43:55.072Z,99.90
2022-08-17T23:46:25.103Z,99.90
2022-08-17T23:48:54.089Z,99.90
2022-08-17T23:51:25.436Z,99.90
2022-08-17T23:53:57.978Z,99.90
2022-08-17T23:56:26.081Z,99.90
